sensor_id;sensor_type;location;lat;lon;timestamp;temperature;humidity
45042;DHT22;30779;52.096;4.410;2022-07-22T00:02:12;17.10;99.90
45042;DHT22;30779;52.096;4.410;2022-07-22T00:05:13;17.10;99.90
45042;DHT22;30779;52.096;4.410;2022-07-22T00:08:13;17.10;99.90
45042;DHT22;30779;52.096;4.410;2022-07-22T00:11:14;17.20;99.90
45042;DHT22;30779;52.096;4.410;2022-07-22T00:14:15;17.20;99.90
45042;DHT22;30779;52.096;4.410;2022-07-22T00:17:16;17.20;99.90
45042;DHT22;30779;52.096;4.410;2022-07-22T00:20:16;17.20;99.90
45042;DHT22;30779;52.096;4.410;2022-07-22T00:23:17;17.10;99.90
45042;DHT22;30779;52.096;4.410;2022-07-22T00:26:18;17.10;99.90
45042;DHT22;30779;52.096;4.410;2022-07-22T00:29:18;17.00;99.90
45042;DHT22;30779;52.096;4.410;2022-07-22T00:32:19;16.90;99.90
45042;DHT22;30779;52.096;4.410;2022-07-22T00:35:20;17.00;99.90
45042;DHT22;30779;52.096;4.410;2022-07-22T00:38:20;17.00;99.90
45042;DHT22;30779;52.096;4.410;2022-07-22T00:41:21;17.00;99.90
45042;DHT22;30779;52.096;4.410;2022-07-22T00:44:22;16.90;99.90
45042;DHT22;30779;52.096;4.410;2022-07-22T00:47:23;16.90;99.90
45042;DHT22;30779;52.096;4.410;2022-07-22T00:50:24;16.90;99.90
45042;DHT22;30779;52.096;4.410;2022-07-22T00:53:25;16.90;99.90
45042;DHT22;30779;52.096;4.410;2022-07-22T00:56:26;16.90;99.90
45042;DHT22;30779;52.096;4.410;2022-07-22T00:59:27;16.90;99.90
45042;DHT22;30779;52.096;4.410;2022-07-22T01:02:28;16.90;99.90
45042;DHT22;30779;52.096;4.410;2022-07-22T01:05:28;17.00;99.90
45042;DHT22;30779;52.096;4.410;2022-07-22T01:08:29;17.00;99.90
45042;DHT22;30779;52.096;4.410;2022-07-22T01:11:30;16.90;99.90
45042;DHT22;30779;52.096;4.410;2022-07-22T01:14:30;17.00;99.90
45042;DHT22;30779;52.096;4.410;2022-07-22T01:17:31;17.00;99.90
45042;DHT22;30779;52.096;4.410;2022-07-22T01:20:32;17.00;99.90
45042;DHT22;30779;52.096;4.410;2022-07-22T01:23:34;17.00;99.90
45042;DHT22;30779;52.096;4.410;2022-07-22T01:26:35;16.90;99.90
45042;DHT22;30779;52.096;4.410;2022-07-22T01:29:35;16.90;99.90
45042;DHT22;30779;52.096;4.410;2022-07-22T01:32:36;16.90;99.90
45042;DHT22;30779;52.096;4.410;2022-07-22T01:35:37;16.90;99.90
45042;DHT22;30779;52.096;4.410;2022-07-22T01:38:38;16.90;99.90
45042;DHT22;30779;52.096;4.410;2022-07-22T01:41:38;16.90;99.90
45042;DHT22;30779;52.096;4.410;2022-07-22T01:44:39;16.90;99.90
45042;DHT22;30779;52.096;4.410;2022-07-22T01:47:40;16.80;99.90
45042;DHT22;30779;52.096;4.410;2022-07-22T01:50:41;16.90;99.90
45042;DHT22;30779;52.096;4.410;2022-07-22T01:53:42;16.90;99.90
45042;DHT22;30779;52.096;4.410;2022-07-22T01:56:43;16.90;99.90
45042;DHT22;30779;52.096;4.410;2022-07-22T01:59:43;17.00;99.90
45042;DHT22;30779;52.096;4.410;2022-07-22T02:02:44;16.90;99.90
45042;DHT22;30779;52.096;4.410;2022-07-22T02:05:45;17.00;99.90
45042;DHT22;30779;52.096;4.410;2022-07-22T02:08:45;16.90;99.90
45042;DHT22;30779;52.096;4.410;2022-07-22T02:11:46;16.90;99.90
45042;DHT22;30779;52.096;4.410;2022-07-22T02:14:47;17.00;99.90
45042;DHT22;30779;52.096;4.410;2022-07-22T02:17:47;17.00;99.90
45042;DHT22;30779;52.096;4.410;2022-07-22T02:20:48;17.00;99.90
45042;DHT22;30779;52.096;4.410;2022-07-22T02:23:49;17.00;99.90
45042;DHT22;30779;52.096;4.410;2022-07-22T02:26:49;17.00;99.90
45042;DHT22;30779;52.096;4.410;2022-07-22T02:29:50;17.00;99.90
45042;DHT22;30779;52.096;4.410;2022-07-22T02:32:50;16.90;99.90
45042;DHT22;30779;52.096;4.410;2022-07-22T02:35:51;17.00;99.90
45042;DHT22;30779;52.096;4.410;2022-07-22T02:38:52;17.00;99.90
45042;DHT22;30779;52.096;4.410;2022-07-22T02:41:52;17.00;99.90
45042;DHT22;30779;52.096;4.410;2022-07-22T02:44:53;17.00;99.90
45042;DHT22;30779;52.096;4.410;2022-07-22T02:47:55;17.00;99.90
45042;DHT22;30779;52.096;4.410;2022-07-22T02:50:56;17.00;99.90
45042;DHT22;30779;52.096;4.410;2022-07-22T02:53:57;17.00;99.90
45042;DHT22;30779;52.096;4.410;2022-07-22T02:56:57;17.00;99.90
45042;DHT22;30779;52.096;4.410;2022-07-22T02:59:58;17.00;99.90
45042;DHT22;30779;52.096;4.410;2022-07-22T03:02:59;17.00;99.90
45042;DHT22;30779;52.096;4.410;2022-07-22T03:05:59;17.00;99.90
45042;DHT22;30779;52.096;4.410;2022-07-22T03:09:00;17.00;99.90
45042;DHT22;30779;52.096;4.410;2022-07-22T03:12:01;16.90;99.90
45042;DHT22;30779;52.096;4.410;2022-07-22T03:15:01;16.90;99.90
45042;DHT22;30779;52.096;4.410;2022-07-22T03:18:02;16.90;99.90
45042;DHT22;30779;52.096;4.410;2022-07-22T03:21:03;16.80;99.90
45042;DHT22;30779;52.096;4.410;2022-07-22T03:24:04;16.70;99.90
45042;DHT22;30779;52.096;4.410;2022-07-22T03:27:05;16.70;99.90
45042;DHT22;30779;52.096;4.410;2022-07-22T03:30:06;16.70;99.90
45042;DHT22;30779;52.096;4.410;2022-07-22T03:33:06;16.70;99.90
45042;DHT22;30779;52.096;4.410;2022-07-22T03:36:07;16.60;99.90
45042;DHT22;30779;52.096;4.410;2022-07-22T03:39:08;16.70;99.90
45042;DHT22;30779;52.096;4.410;2022-07-22T03:42:09;16.70;99.90
45042;DHT22;30779;52.096;4.410;2022-07-22T03:45:10;16.70;99.90
45042;DHT22;30779;52.096;4.410;2022-07-22T03:48:10;16.70;99.90
45042;DHT22;30779;52.096;4.410;2022-07-22T03:51:11;16.70;99.90
45042;DHT22;30779;52.096;4.410;2022-07-22T03:54:12;16.70;99.90
45042;DHT22;30779;52.096;4.410;2022-07-22T03:57:12;16.70;99.90
45042;DHT22;30779;52.096;4.410;2022-07-22T04:00:14;16.70;99.90
45042;DHT22;30779;52.096;4.410;2022-07-22T04:03:14;16.70;99.90
45042;DHT22;30779;52.096;4.410;2022-07-22T04:06:15;16.70;99.90
45042;DHT22;30779;52.096;4.410;2022-07-22T04:09:17;16.70;99.90
45042;DHT22;30779;52.096;4.410;2022-07-22T04:12:18;16.80;99.90
45042;DHT22;30779;52.096;4.410;2022-07-22T04:15:18;16.80;99.90
45042;DHT22;30779;52.096;4.410;2022-07-22T04:18:19;16.70;99.90
45042;DHT22;30779;52.096;4.410;2022-07-22T04:21:20;16.80;99.90
45042;DHT22;30779;52.096;4.410;2022-07-22T04:24:21;16.80;99.90
45042;DHT22;30779;52.096;4.410;2022-07-22T04:27:22;16.90;99.90
45042;DHT22;30779;52.096;4.410;2022-07-22T04:30:24;16.90;99.90
45042;DHT22;30779;52.096;4.410;2022-07-22T04:33:24;16.90;99.90
45042;DHT22;30779;52.096;4.410;2022-07-22T04:36:25;16.90;99.90
45042;DHT22;30779;52.096;4.410;2022-07-22T04:39:26;16.90;99.90
45042;DHT22;30779;52.096;4.410;2022-07-22T04:42:26;17.00;99.90
45042;DHT22;30779;52.096;4.410;2022-07-22T04:45:27;17.00;99.90
45042;DHT22;30779;52.096;4.410;2022-07-22T04:48:27;17.10;99.90
45042;DHT22;30779;52.096;4.410;2022-07-22T04:51:28;17.00;99.90
45042;DHT22;30779;52.096;4.410;2022-07-22T04:54:29;17.10;99.90
45042;DHT22;30779;52.096;4.410;2022-07-22T04:57:29;17.20;99.90
45042;DHT22;30779;52.096;4.410;2022-07-22T05:00:30;17.20;99.90
45042;DHT22;30779;52.096;4.410;2022-07-22T05:03:31;17.20;99.90
45042;DHT22;30779;52.096;4.410;2022-07-22T05:06:31;17.20;99.90
45042;DHT22;30779;52.096;4.410;2022-07-22T05:09:32;17.30;99.90
45042;DHT22;30779;52.096;4.410;2022-07-22T05:12:32;17.30;99.90
45042;DHT22;30779;52.096;4.410;2022-07-22T05:15:33;17.30;99.90
45042;DHT22;30779;52.096;4.410;2022-07-22T05:18:34;17.30;99.90
45042;DHT22;30779;52.096;4.410;2022-07-22T05:21:37;17.40;99.90
45042;DHT22;30779;52.096;4.410;2022-07-22T05:24:38;17.50;99.90
45042;DHT22;30779;52.096;4.410;2022-07-22T05:27:49;17.50;99.90
45042;DHT22;30779;52.096;4.410;2022-07-22T05:30:50;17.50;99.90
45042;DHT22;30779;52.096;4.410;2022-07-22T05:33:51;17.40;99.90
45042;DHT22;30779;52.096;4.410;2022-07-22T05:36:51;17.40;99.90
45042;DHT22;30779;52.096;4.410;2022-07-22T05:39:52;17.40;99.90
45042;DHT22;30779;52.096;4.410;2022-07-22T05:42:53;17.50;99.90
45042;DHT22;30779;52.096;4.410;2022-07-22T05:45:53;17.50;99.90
45042;DHT22;30779;52.096;4.410;2022-07-22T05:48:54;17.50;99.90
45042;DHT22;30779;52.096;4.410;2022-07-22T05:51:55;17.60;99.90
45042;DHT22;30779;52.096;4.410;2022-07-22T05:55:00;17.60;99.90
45042;DHT22;30779;52.096;4.410;2022-07-22T05:58:01;17.60;99.90
45042;DHT22;30779;52.096;4.410;2022-07-22T06:01:02;17.60;99.90
45042;DHT22;30779;52.096;4.410;2022-07-22T06:04:03;17.70;99.90
45042;DHT22;30779;52.096;4.410;2022-07-22T06:07:04;17.70;99.90
45042;DHT22;30779;52.096;4.410;2022-07-22T06:10:07;17.80;99.90
45042;DHT22;30779;52.096;4.410;2022-07-22T06:13:07;17.90;99.90
45042;DHT22;30779;52.096;4.410;2022-07-22T06:16:08;17.90;99.90
45042;DHT22;30779;52.096;4.410;2022-07-22T06:19:09;17.90;99.90
45042;DHT22;30779;52.096;4.410;2022-07-22T06:22:09;18.00;99.90
45042;DHT22;30779;52.096;4.410;2022-07-22T06:25:10;18.00;99.90
45042;DHT22;30779;52.096;4.410;2022-07-22T06:28:11;18.00;99.90
45042;DHT22;30779;52.096;4.410;2022-07-22T06:31:12;18.10;99.90
45042;DHT22;30779;52.096;4.410;2022-07-22T06:37:14;18.20;99.90
45042;DHT22;30779;52.096;4.410;2022-07-22T06:40:14;18.30;99.90
45042;DHT22;30779;52.096;4.410;2022-07-22T06:43:15;18.30;99.90
45042;DHT22;30779;52.096;4.410;2022-07-22T06:46:16;18.20;99.90
45042;DHT22;30779;52.096;4.410;2022-07-22T06:49:16;18.30;99.90
45042;DHT22;30779;52.096;4.410;2022-07-22T06:52:17;18.50;99.90
45042;DHT22;30779;52.096;4.410;2022-07-22T06:55:17;18.50;99.90
45042;DHT22;30779;52.096;4.410;2022-07-22T06:58:18;18.40;99.90
45042;DHT22;30779;52.096;4.410;2022-07-22T07:01:19;18.40;99.90
45042;DHT22;30779;52.096;4.410;2022-07-22T07:04:19;18.30;99.90
45042;DHT22;30779;52.096;4.410;2022-07-22T07:07:20;18.30;99.90
45042;DHT22;30779;52.096;4.410;2022-07-22T07:10:21;18.20;99.90
45042;DHT22;30779;52.096;4.410;2022-07-22T07:13:22;18.20;99.90
45042;DHT22;30779;52.096;4.410;2022-07-22T07:16:23;18.10;99.90
45042;DHT22;30779;52.096;4.410;2022-07-22T07:19:24;18.00;99.90
45042;DHT22;30779;52.096;4.410;2022-07-22T07:22:25;18.00;99.90
45042;DHT22;30779;52.096;4.410;2022-07-22T07:25:25;18.10;99.90
45042;DHT22;30779;52.096;4.410;2022-07-22T07:28:26;18.10;99.90
45042;DHT22;30779;52.096;4.410;2022-07-22T07:31:26;18.00;99.90
45042;DHT22;30779;52.096;4.410;2022-07-22T07:34:27;18.10;99.90
45042;DHT22;30779;52.096;4.410;2022-07-22T07:37:28;18.00;99.90
45042;DHT22;30779;52.096;4.410;2022-07-22T07:40:29;18.10;99.90
45042;DHT22;30779;52.096;4.410;2022-07-22T07:43:29;18.10;99.90
45042;DHT22;30779;52.096;4.410;2022-07-22T07:46:30;18.30;99.90
45042;DHT22;30779;52.096;4.410;2022-07-22T07:49:31;18.10;99.90
45042;DHT22;30779;52.096;4.410;2022-07-22T07:52:43;18.10;99.90
45042;DHT22;30779;52.096;4.410;2022-07-22T07:55:44;18.20;99.90
45042;DHT22;30779;52.096;4.410;2022-07-22T07:58:46;18.30;99.90
45042;DHT22;30779;52.096;4.410;2022-07-22T08:01:46;18.30;99.90
45042;DHT22;30779;52.096;4.410;2022-07-22T08:04:47;18.50;99.90
45042;DHT22;30779;52.096;4.410;2022-07-22T08:07:48;18.60;99.90
45042;DHT22;30779;52.096;4.410;2022-07-22T08:10:49;18.60;99.90
45042;DHT22;30779;52.096;4.410;2022-07-22T08:13:50;18.60;99.90
45042;DHT22;30779;52.096;4.410;2022-07-22T08:16:52;18.70;99.90
45042;DHT22;30779;52.096;4.410;2022-07-22T08:19:53;18.80;99.90
45042;DHT22;30779;52.096;4.410;2022-07-22T08:22:54;18.70;99.90
45042;DHT22;30779;52.096;4.410;2022-07-22T08:25:55;18.60;99.90
45042;DHT22;30779;52.096;4.410;2022-07-22T08:28:56;18.70;99.90
45042;DHT22;30779;52.096;4.410;2022-07-22T08:31:56;18.90;99.90
45042;DHT22;30779;52.096;4.410;2022-07-22T08:34:57;18.90;99.90
45042;DHT22;30779;52.096;4.410;2022-07-22T08:37:57;19.10;99.90
45042;DHT22;30779;52.096;4.410;2022-07-22T08:41:01;19.40;99.90
45042;DHT22;30779;52.096;4.410;2022-07-22T08:44:03;19.60;99.90
45042;DHT22;30779;52.096;4.410;2022-07-22T08:47:04;19.50;99.90
45042;DHT22;30779;52.096;4.410;2022-07-22T08:50:05;19.30;99.90
45042;DHT22;30779;52.096;4.410;2022-07-22T08:53:10;19.10;99.90
45042;DHT22;30779;52.096;4.410;2022-07-22T08:56:12;19.10;99.90
45042;DHT22;30779;52.096;4.410;2022-07-22T08:59:14;19.10;99.90
45042;DHT22;30779;52.096;4.410;2022-07-22T09:02:15;19.00;99.90
45042;DHT22;30779;52.096;4.410;2022-07-22T09:05:16;19.10;99.90
45042;DHT22;30779;52.096;4.410;2022-07-22T09:08:18;19.40;99.90
45042;DHT22;30779;52.096;4.410;2022-07-22T09:11:19;19.70;99.90
45042;DHT22;30779;52.096;4.410;2022-07-22T09:14:20;19.80;99.90
45042;DHT22;30779;52.096;4.410;2022-07-22T09:20:26;19.50;99.90
45042;DHT22;30779;52.096;4.410;2022-07-22T09:23:39;19.80;99.90
45042;DHT22;30779;52.096;4.410;2022-07-22T09:26:40;20.00;99.90
45042;DHT22;30779;52.096;4.410;2022-07-22T09:29:49;19.80;99.90
45042;DHT22;30779;52.096;4.410;2022-07-22T09:32:51;19.70;99.90
45042;DHT22;30779;52.096;4.410;2022-07-22T09:35:52;19.60;99.90
45042;DHT22;30779;52.096;4.410;2022-07-22T09:39:01;19.40;99.90
45042;DHT22;30779;52.096;4.410;2022-07-22T09:42:21;19.30;99.90
45042;DHT22;30779;52.096;4.410;2022-07-22T09:45:24;19.30;99.90
45042;DHT22;30779;52.096;4.410;2022-07-22T09:48:25;19.30;99.90
45042;DHT22;30779;52.096;4.410;2022-07-22T09:51:26;19.40;99.90
45042;DHT22;30779;52.096;4.410;2022-07-22T09:54:29;19.60;99.90
45042;DHT22;30779;52.096;4.410;2022-07-22T09:57:29;19.80;99.90
45042;DHT22;30779;52.096;4.410;2022-07-22T10:00:30;20.00;99.90
45042;DHT22;30779;52.096;4.410;2022-07-22T10:03:34;19.90;99.90
45042;DHT22;30779;52.096;4.410;2022-07-22T10:06:41;19.90;99.90
45042;DHT22;30779;52.096;4.410;2022-07-22T10:09:46;19.90;99.90
45042;DHT22;30779;52.096;4.410;2022-07-22T10:12:48;19.80;99.90
45042;DHT22;30779;52.096;4.410;2022-07-22T10:15:49;19.80;99.90
45042;DHT22;30779;52.096;4.410;2022-07-22T10:18:50;19.90;99.90
45042;DHT22;30779;52.096;4.410;2022-07-22T10:21:51;20.10;99.90
45042;DHT22;30779;52.096;4.410;2022-07-22T10:25:01;20.10;99.90
45042;DHT22;30779;52.096;4.410;2022-07-22T10:28:04;20.30;99.90
45042;DHT22;30779;52.096;4.410;2022-07-22T10:31:18;20.40;99.90
45042;DHT22;30779;52.096;4.410;2022-07-22T10:34:19;20.30;99.90
45042;DHT22;30779;52.096;4.410;2022-07-22T10:40:58;19.90;99.90
45042;DHT22;30779;52.096;4.410;2022-07-22T10:43:59;19.80;99.90
45042;DHT22;30779;52.096;4.410;2022-07-22T10:46:59;19.80;99.90
45042;DHT22;30779;52.096;4.410;2022-07-22T10:53:52;20.00;99.90
45042;DHT22;30779;52.096;4.410;2022-07-22T10:56:54;20.00;99.90
45042;DHT22;30779;52.096;4.410;2022-07-22T10:59:54;20.00;99.90
45042;DHT22;30779;52.096;4.410;2022-07-22T11:02:55;20.00;99.90
45042;DHT22;30779;52.096;4.410;2022-07-22T11:05:56;20.30;99.90
45042;DHT22;30779;52.096;4.410;2022-07-22T11:09:00;20.50;99.90
45042;DHT22;30779;52.096;4.410;2022-07-22T11:12:00;20.90;99.90
45042;DHT22;30779;52.096;4.410;2022-07-22T11:15:03;21.60;99.90
45042;DHT22;30779;52.096;4.410;2022-07-22T11:18:06;22.20;99.90
45042;DHT22;30779;52.096;4.410;2022-07-22T11:21:07;22.60;99.90
45042;DHT22;30779;52.096;4.410;2022-07-22T11:24:08;22.60;99.90
45042;DHT22;30779;52.096;4.410;2022-07-22T11:27:14;22.30;99.90
45042;DHT22;30779;52.096;4.410;2022-07-22T11:30:15;21.80;99.90
45042;DHT22;30779;52.096;4.410;2022-07-22T11:33:15;21.10;99.90
45042;DHT22;30779;52.096;4.410;2022-07-22T11:36:16;20.90;99.90
45042;DHT22;30779;52.096;4.410;2022-07-22T11:39:22;20.70;99.90
45042;DHT22;30779;52.096;4.410;2022-07-22T11:42:25;20.70;99.90
45042;DHT22;30779;52.096;4.410;2022-07-22T11:45:26;21.40;99.90
45042;DHT22;30779;52.096;4.410;2022-07-22T11:48:27;22.30;99.90
45042;DHT22;30779;52.096;4.410;2022-07-22T11:51:29;22.80;99.90
45042;DHT22;30779;52.096;4.410;2022-07-22T11:54:30;23.00;99.90
45042;DHT22;30779;52.096;4.410;2022-07-22T11:57:31;22.60;99.90
45042;DHT22;30779;52.096;4.410;2022-07-22T12:00:31;22.10;99.90
45042;DHT22;30779;52.096;4.410;2022-07-22T12:03:34;21.80;99.90
45042;DHT22;30779;52.096;4.410;2022-07-22T12:06:39;21.90;99.90
45042;DHT22;30779;52.096;4.410;2022-07-22T12:09:41;21.80;99.90
45042;DHT22;30779;52.096;4.410;2022-07-22T12:12:42;21.70;99.90
45042;DHT22;30779;52.096;4.410;2022-07-22T12:15:43;21.70;99.90
45042;DHT22;30779;52.096;4.410;2022-07-22T12:18:44;21.70;99.90
45042;DHT22;30779;52.096;4.410;2022-07-22T12:22:07;21.60;99.90
45042;DHT22;30779;52.096;4.410;2022-07-22T12:25:08;21.60;99.90
45042;DHT22;30779;52.096;4.410;2022-07-22T12:28:10;21.50;99.90
45042;DHT22;30779;52.096;4.410;2022-07-22T12:31:11;21.50;99.90
45042;DHT22;30779;52.096;4.410;2022-07-22T12:34:12;21.80;99.90
45042;DHT22;30779;52.096;4.410;2022-07-22T12:37:22;21.90;99.90
45042;DHT22;30779;52.096;4.410;2022-07-22T12:40:23;21.90;99.90
45042;DHT22;30779;52.096;4.410;2022-07-22T12:43:25;21.90;99.90
45042;DHT22;30779;52.096;4.410;2022-07-22T12:46:26;21.70;99.90
45042;DHT22;30779;52.096;4.410;2022-07-22T12:49:26;21.50;99.90
45042;DHT22;30779;52.096;4.410;2022-07-22T12:52:27;21.50;99.90
45042;DHT22;30779;52.096;4.410;2022-07-22T12:55:28;21.40;99.90
45042;DHT22;30779;52.096;4.410;2022-07-22T12:58:30;21.40;99.90
45042;DHT22;30779;52.096;4.410;2022-07-22T13:01:32;21.50;99.90
45042;DHT22;30779;52.096;4.410;2022-07-22T13:04:33;21.60;99.90
45042;DHT22;30779;52.096;4.410;2022-07-22T13:07:33;21.70;99.90
45042;DHT22;30779;52.096;4.410;2022-07-22T13:10:34;21.80;99.90
45042;DHT22;30779;52.096;4.410;2022-07-22T13:13:35;22.10;99.90
45042;DHT22;30779;52.096;4.410;2022-07-22T13:16:35;22.00;99.90
45042;DHT22;30779;52.096;4.410;2022-07-22T13:19:36;21.70;99.90
45042;DHT22;30779;52.096;4.410;2022-07-22T13:22:37;21.50;99.90
45042;DHT22;30779;52.096;4.410;2022-07-22T13:25:37;21.20;99.90
45042;DHT22;30779;52.096;4.410;2022-07-22T13:28:38;21.20;99.90
45042;DHT22;30779;52.096;4.410;2022-07-22T13:31:38;21.30;99.90
45042;DHT22;30779;52.096;4.410;2022-07-22T13:34:39;21.20;99.90
45042;DHT22;30779;52.096;4.410;2022-07-22T13:37:40;21.10;99.90
45042;DHT22;30779;52.096;4.410;2022-07-22T13:40:44;21.20;99.90
45042;DHT22;30779;52.096;4.410;2022-07-22T13:43:54;21.50;99.90
45042;DHT22;30779;52.096;4.410;2022-07-22T13:46:57;21.50;99.90
45042;DHT22;30779;52.096;4.410;2022-07-22T13:49:58;21.80;99.90
45042;DHT22;30779;52.096;4.410;2022-07-22T13:52:59;21.80;99.90
45042;DHT22;30779;52.096;4.410;2022-07-22T13:56:00;21.20;99.90
45042;DHT22;30779;52.096;4.410;2022-07-22T13:59:02;20.90;99.90
45042;DHT22;30779;52.096;4.410;2022-07-22T14:02:03;20.90;99.90
45042;DHT22;30779;52.096;4.410;2022-07-22T14:05:04;21.00;99.90
45042;DHT22;30779;52.096;4.410;2022-07-22T14:08:05;20.90;99.90
45042;DHT22;30779;52.096;4.410;2022-07-22T14:11:06;20.70;99.90
45042;DHT22;30779;52.096;4.410;2022-07-22T14:14:06;20.50;99.90
45042;DHT22;30779;52.096;4.410;2022-07-22T14:17:07;20.70;99.90
45042;DHT22;30779;52.096;4.410;2022-07-22T14:20:08;20.80;99.90
45042;DHT22;30779;52.096;4.410;2022-07-22T14:23:09;20.90;99.90
45042;DHT22;30779;52.096;4.410;2022-07-22T14:26:10;20.90;99.90
45042;DHT22;30779;52.096;4.410;2022-07-22T14:29:11;20.80;99.90
45042;DHT22;30779;52.096;4.410;2022-07-22T14:32:11;20.80;99.90
45042;DHT22;30779;52.096;4.410;2022-07-22T14:35:12;20.50;99.90
45042;DHT22;30779;52.096;4.410;2022-07-22T14:38:12;20.40;99.90
45042;DHT22;30779;52.096;4.410;2022-07-22T14:41:13;20.40;99.90
45042;DHT22;30779;52.096;4.410;2022-07-22T14:44:14;20.30;99.90
45042;DHT22;30779;52.096;4.410;2022-07-22T14:47:14;20.40;99.90
45042;DHT22;30779;52.096;4.410;2022-07-22T14:50:15;20.30;99.90
45042;DHT22;30779;52.096;4.410;2022-07-22T14:53:16;20.20;99.90
45042;DHT22;30779;52.096;4.410;2022-07-22T14:56:17;20.30;99.90
45042;DHT22;30779;52.096;4.410;2022-07-22T14:59:18;20.40;99.90
45042;DHT22;30779;52.096;4.410;2022-07-22T15:02:18;20.20;99.90
45042;DHT22;30779;52.096;4.410;2022-07-22T15:05:21;20.10;99.90
45042;DHT22;30779;52.096;4.410;2022-07-22T15:08:21;20.20;99.90
45042;DHT22;30779;52.096;4.410;2022-07-22T15:11:22;20.30;99.90
45042;DHT22;30779;52.096;4.410;2022-07-22T15:14:23;20.30;99.90
45042;DHT22;30779;52.096;4.410;2022-07-22T15:17:23;20.30;99.90
45042;DHT22;30779;52.096;4.410;2022-07-22T15:20:24;20.40;99.90
45042;DHT22;30779;52.096;4.410;2022-07-22T15:23:25;20.20;99.90
45042;DHT22;30779;52.096;4.410;2022-07-22T15:26:29;20.20;99.90
45042;DHT22;30779;52.096;4.410;2022-07-22T15:29:30;20.10;99.90
45042;DHT22;30779;52.096;4.410;2022-07-22T15:32:31;20.00;99.90
45042;DHT22;30779;52.096;4.410;2022-07-22T15:35:31;19.90;99.90
45042;DHT22;30779;52.096;4.410;2022-07-22T15:38:36;19.80;99.90
45042;DHT22;30779;52.096;4.410;2022-07-22T15:41:37;19.70;99.90
45042;DHT22;30779;52.096;4.410;2022-07-22T15:44:38;19.50;99.90
45042;DHT22;30779;52.096;4.410;2022-07-22T15:47:38;19.50;99.90
45042;DHT22;30779;52.096;4.410;2022-07-22T15:50:39;19.50;99.90
45042;DHT22;30779;52.096;4.410;2022-07-22T15:53:40;19.50;99.90
45042;DHT22;30779;52.096;4.410;2022-07-22T15:56:41;19.50;99.90
45042;DHT22;30779;52.096;4.410;2022-07-22T15:59:41;19.50;99.90
45042;DHT22;30779;52.096;4.410;2022-07-22T16:02:43;19.60;99.90
45042;DHT22;30779;52.096;4.410;2022-07-22T16:05:43;19.60;99.90
45042;DHT22;30779;52.096;4.410;2022-07-22T16:08:44;19.60;99.90
45042;DHT22;30779;52.096;4.410;2022-07-22T16:11:45;19.70;99.90
45042;DHT22;30779;52.096;4.410;2022-07-22T16:14:45;19.70;99.90
45042;DHT22;30779;52.096;4.410;2022-07-22T16:17:46;19.70;99.90
45042;DHT22;30779;52.096;4.410;2022-07-22T16:20:47;19.40;99.90
45042;DHT22;30779;52.096;4.410;2022-07-22T16:23:47;19.20;99.90
45042;DHT22;30779;52.096;4.410;2022-07-22T16:26:48;19.30;99.90
45042;DHT22;30779;52.096;4.410;2022-07-22T16:29:48;19.30;99.90
45042;DHT22;30779;52.096;4.410;2022-07-22T16:32:49;19.20;99.90
45042;DHT22;30779;52.096;4.410;2022-07-22T16:35:50;19.20;99.90
45042;DHT22;30779;52.096;4.410;2022-07-22T16:38:50;19.20;99.90
45042;DHT22;30779;52.096;4.410;2022-07-22T16:41:51;19.30;99.90
45042;DHT22;30779;52.096;4.410;2022-07-22T16:44:52;19.30;99.90
45042;DHT22;30779;52.096;4.410;2022-07-22T16:47:52;19.30;99.90
45042;DHT22;30779;52.096;4.410;2022-07-22T16:50:53;19.20;99.90
45042;DHT22;30779;52.096;4.410;2022-07-22T16:53:54;19.10;99.90
45042;DHT22;30779;52.096;4.410;2022-07-22T16:56:54;19.10;99.90
45042;DHT22;30779;52.096;4.410;2022-07-22T16:59:56;19.10;99.90
45042;DHT22;30779;52.096;4.410;2022-07-22T17:02:56;19.10;99.90
45042;DHT22;30779;52.096;4.410;2022-07-22T17:05:57;19.10;99.90
45042;DHT22;30779;52.096;4.410;2022-07-22T17:09:00;19.00;99.90
45042;DHT22;30779;52.096;4.410;2022-07-22T17:12:01;18.90;99.90
45042;DHT22;30779;52.096;4.410;2022-07-22T17:15:02;18.80;99.90
45042;DHT22;30779;52.096;4.410;2022-07-22T17:18:03;18.70;99.90
45042;DHT22;30779;52.096;4.410;2022-07-22T17:21:04;18.70;99.90
45042;DHT22;30779;52.096;4.410;2022-07-22T17:24:05;18.60;99.90
45042;DHT22;30779;52.096;4.410;2022-07-22T17:27:06;18.60;99.90
45042;DHT22;30779;52.096;4.410;2022-07-22T17:30:07;18.50;99.90
45042;DHT22;30779;52.096;4.410;2022-07-22T17:33:08;18.50;99.90
45042;DHT22;30779;52.096;4.410;2022-07-22T17:36:09;18.40;99.90
45042;DHT22;30779;52.096;4.410;2022-07-22T17:39:10;18.50;99.90
45042;DHT22;30779;52.096;4.410;2022-07-22T17:42:11;18.50;99.90
45042;DHT22;30779;52.096;4.410;2022-07-22T17:45:12;18.40;99.90
45042;DHT22;30779;52.096;4.410;2022-07-22T17:48:12;18.40;99.90
45042;DHT22;30779;52.096;4.410;2022-07-22T17:51:13;18.30;99.90
45042;DHT22;30779;52.096;4.410;2022-07-22T17:54:13;18.30;99.90
45042;DHT22;30779;52.096;4.410;2022-07-22T17:57:14;18.30;99.90
45042;DHT22;30779;52.096;4.410;2022-07-22T18:00:15;18.30;99.90
45042;DHT22;30779;52.096;4.410;2022-07-22T18:03:16;18.20;99.90
45042;DHT22;30779;52.096;4.410;2022-07-22T18:06:17;18.20;99.90
45042;DHT22;30779;52.096;4.410;2022-07-22T18:09:17;18.20;99.90
45042;DHT22;30779;52.096;4.410;2022-07-22T18:12:18;18.20;99.90
45042;DHT22;30779;52.096;4.410;2022-07-22T18:15:19;18.20;99.90
45042;DHT22;30779;52.096;4.410;2022-07-22T18:18:19;18.10;99.90
45042;DHT22;30779;52.096;4.410;2022-07-22T18:21:21;18.10;99.90
45042;DHT22;30779;52.096;4.410;2022-07-22T18:24:21;18.10;99.90
45042;DHT22;30779;52.096;4.410;2022-07-22T18:27:22;18.10;99.90
45042;DHT22;30779;52.096;4.410;2022-07-22T18:30:23;18.10;99.90
45042;DHT22;30779;52.096;4.410;2022-07-22T18:33:23;18.10;99.90
45042;DHT22;30779;52.096;4.410;2022-07-22T18:36:24;18.10;99.90
45042;DHT22;30779;52.096;4.410;2022-07-22T18:39:25;18.00;99.90
45042;DHT22;30779;52.096;4.410;2022-07-22T18:42:25;18.00;99.90
45042;DHT22;30779;52.096;4.410;2022-07-22T18:45:26;18.10;99.90
45042;DHT22;30779;52.096;4.410;2022-07-22T18:48:27;18.10;99.90
45042;DHT22;30779;52.096;4.410;2022-07-22T18:51:28;18.10;99.90
45042;DHT22;30779;52.096;4.410;2022-07-22T18:54:29;18.10;99.90
45042;DHT22;30779;52.096;4.410;2022-07-22T18:57:29;18.00;99.90
45042;DHT22;30779;52.096;4.410;2022-07-22T19:00:30;17.90;99.90
45042;DHT22;30779;52.096;4.410;2022-07-22T19:03:30;17.80;99.90
45042;DHT22;30779;52.096;4.410;2022-07-22T19:06:31;17.80;99.90
45042;DHT22;30779;52.096;4.410;2022-07-22T19:09:32;17.80;99.90
45042;DHT22;30779;52.096;4.410;2022-07-22T19:12:34;17.80;99.90
45042;DHT22;30779;52.096;4.410;2022-07-22T19:15:36;17.80;99.90
45042;DHT22;30779;52.096;4.410;2022-07-22T19:18:37;17.80;99.90